sensor_id;sensor_type;location;lat;lon;timestamp;temperature;humidity
48535;DHT22;34323;52.022;5.686;2023-08-07T00:00:22;18.10;99.90
48535;DHT22;34323;52.022;5.686;2023-08-07T00:02:48;18.10;99.90
48535;DHT22;34323;52.022;5.686;2023-08-07T00:05:14;18.10;99.90
48535;DHT22;34323;52.022;5.686;2023-08-07T00:07:39;18.10;99.90
48535;DHT22;34323;52.022;5.686;2023-08-07T00:10:06;18.00;99.90
48535;DHT22;34323;52.022;5.686;2023-08-07T00:12:31;17.80;99.90
48535;DHT22;34323;52.022;5.686;2023-08-07T00:14:57;17.70;99.90
48535;DHT22;34323;52.022;5.686;2023-08-07T00:17:23;17.70;99.90
48535;DHT22;34323;52.022;5.686;2023-08-07T00:19:48;17.60;99.90
48535;DHT22;34323;52.022;5.686;2023-08-07T00:22:14;17.50;99.90
48535;DHT22;34323;52.022;5.686;2023-08-07T00:24:39;17.20;99.90
48535;DHT22;34323;52.022;5.686;2023-08-07T00:27:05;17.20;99.90
48535;DHT22;34323;52.022;5.686;2023-08-07T00:29:32;17.40;99.90
48535;DHT22;34323;52.022;5.686;2023-08-07T00:31:58;17.30;99.90
48535;DHT22;34323;52.022;5.686;2023-08-07T00:34:23;17.50;99.90
48535;DHT22;34323;52.022;5.686;2023-08-07T00:36:49;17.50;99.90
48535;DHT22;34323;52.022;5.686;2023-08-07T00:39:15;17.50;99.90
48535;DHT22;34323;52.022;5.686;2023-08-07T00:41:40;17.60;99.90
48535;DHT22;34323;52.022;5.686;2023-08-07T00:44:06;17.70;99.90
48535;DHT22;34323;52.022;5.686;2023-08-07T00:46:31;17.60;99.90
48535;DHT22;34323;52.022;5.686;2023-08-07T00:48:57;17.70;99.90
48535;DHT22;34323;52.022;5.686;2023-08-07T00:51:23;17.90;99.90
48535;DHT22;34323;52.022;5.686;2023-08-07T00:53:49;17.90;99.90
48535;DHT22;34323;52.022;5.686;2023-08-07T00:56:15;17.70;99.90
48535;DHT22;34323;52.022;5.686;2023-08-07T00:58:41;17.70;99.90
48535;DHT22;34323;52.022;5.686;2023-08-07T01:01:07;17.70;99.90
48535;DHT22;34323;52.022;5.686;2023-08-07T01:03:33;17.70;99.90
48535;DHT22;34323;52.022;5.686;2023-08-07T01:05:58;17.90;99.90
48535;DHT22;34323;52.022;5.686;2023-08-07T01:08:24;17.80;99.90
48535;DHT22;34323;52.022;5.686;2023-08-07T01:11:20;18.00;99.90
48535;DHT22;34323;52.022;5.686;2023-08-07T01:14:19;18.00;99.90
48535;DHT22;34323;52.022;5.686;2023-08-07T01:16:55;18.00;99.90
48535;DHT22;34323;52.022;5.686;2023-08-07T01:19:26;18.10;99.90
48535;DHT22;34323;52.022;5.686;2023-08-07T01:24:30;18.10;99.90
48535;DHT22;34323;52.022;5.686;2023-08-07T01:26:58;18.00;99.90
48535;DHT22;34323;52.022;5.686;2023-08-07T01:29:33;18.00;99.90
48535;DHT22;34323;52.022;5.686;2023-08-07T01:32:05;18.00;99.90
48535;DHT22;34323;52.022;5.686;2023-08-07T01:34:34;18.10;99.90
48535;DHT22;34323;52.022;5.686;2023-08-07T01:37:01;18.30;99.90
48535;DHT22;34323;52.022;5.686;2023-08-07T01:39:28;18.60;99.90
48535;DHT22;34323;52.022;5.686;2023-08-07T01:41:54;18.60;99.90
48535;DHT22;34323;52.022;5.686;2023-08-07T01:44:20;18.60;99.90
48535;DHT22;34323;52.022;5.686;2023-08-07T01:46:46;18.50;99.90
48535;DHT22;34323;52.022;5.686;2023-08-07T01:49:11;18.40;99.90
48535;DHT22;34323;52.022;5.686;2023-08-07T01:51:37;18.60;99.90
48535;DHT22;34323;52.022;5.686;2023-08-07T01:54:02;18.70;99.90
48535;DHT22;34323;52.022;5.686;2023-08-07T01:56:28;18.80;99.90
48535;DHT22;34323;52.022;5.686;2023-08-07T01:58:53;18.80;99.90
48535;DHT22;34323;52.022;5.686;2023-08-07T02:01:19;18.80;99.90
48535;DHT22;34323;52.022;5.686;2023-08-07T02:03:44;18.80;99.90
48535;DHT22;34323;52.022;5.686;2023-08-07T02:06:10;18.60;99.90
48535;DHT22;34323;52.022;5.686;2023-08-07T02:08:36;18.70;99.90
48535;DHT22;34323;52.022;5.686;2023-08-07T02:11:01;18.80;99.90
48535;DHT22;34323;52.022;5.686;2023-08-07T02:13:28;18.90;99.90
48535;DHT22;34323;52.022;5.686;2023-08-07T02:15:53;18.90;99.90
48535;DHT22;34323;52.022;5.686;2023-08-07T02:18:19;18.80;99.90
48535;DHT22;34323;52.022;5.686;2023-08-07T02:20:44;18.90;99.90
48535;DHT22;34323;52.022;5.686;2023-08-07T02:23:11;19.00;99.90
48535;DHT22;34323;52.022;5.686;2023-08-07T02:25:36;19.00;99.90
48535;DHT22;34323;52.022;5.686;2023-08-07T02:28:02;19.00;99.90
48535;DHT22;34323;52.022;5.686;2023-08-07T02:30:28;18.70;99.90
48535;DHT22;34323;52.022;5.686;2023-08-07T02:32:53;18.40;99.90
48535;DHT22;34323;52.022;5.686;2023-08-07T02:35:19;18.50;99.90
48535;DHT22;34323;52.022;5.686;2023-08-07T02:37:44;18.70;99.90
48535;DHT22;34323;52.022;5.686;2023-08-07T02:40:10;19.10;99.90
48535;DHT22;34323;52.022;5.686;2023-08-07T02:42:36;18.90;99.90
48535;DHT22;34323;52.022;5.686;2023-08-07T02:45:02;18.80;99.90
48535;DHT22;34323;52.022;5.686;2023-08-07T02:47:28;18.70;99.90
48535;DHT22;34323;52.022;5.686;2023-08-07T02:49:53;18.60;99.90
48535;DHT22;34323;52.022;5.686;2023-08-07T02:52:19;18.80;99.90
48535;DHT22;34323;52.022;5.686;2023-08-07T02:54:44;18.80;99.90
48535;DHT22;34323;52.022;5.686;2023-08-07T02:57:10;18.80;99.90
48535;DHT22;34323;52.022;5.686;2023-08-07T02:59:35;18.80;99.90
48535;DHT22;34323;52.022;5.686;2023-08-07T03:02:01;18.60;99.90
48535;DHT22;34323;52.022;5.686;2023-08-07T03:04:26;18.60;99.90
48535;DHT22;34323;52.022;5.686;2023-08-07T03:06:52;18.70;99.90
48535;DHT22;34323;52.022;5.686;2023-08-07T03:09:17;18.60;99.90
48535;DHT22;34323;52.022;5.686;2023-08-07T03:11:43;18.70;99.90
48535;DHT22;34323;52.022;5.686;2023-08-07T03:14:09;18.50;99.90
48535;DHT22;34323;52.022;5.686;2023-08-07T03:16:34;18.40;99.90
48535;DHT22;34323;52.022;5.686;2023-08-07T03:19:00;18.20;99.90
48535;DHT22;34323;52.022;5.686;2023-08-07T03:21:25;18.30;99.90
48535;DHT22;34323;52.022;5.686;2023-08-07T03:23:51;18.50;99.90
48535;DHT22;34323;52.022;5.686;2023-08-07T03:26:17;18.70;99.90
48535;DHT22;34323;52.022;5.686;2023-08-07T03:28:42;18.70;99.90
48535;DHT22;34323;52.022;5.686;2023-08-07T03:31:08;18.40;99.90
48535;DHT22;34323;52.022;5.686;2023-08-07T03:33:36;18.60;99.90
48535;DHT22;34323;52.022;5.686;2023-08-07T03:36:02;18.80;99.90
48535;DHT22;34323;52.022;5.686;2023-08-07T03:38:27;19.00;99.90
48535;DHT22;34323;52.022;5.686;2023-08-07T03:40:53;19.10;99.90
48535;DHT22;34323;52.022;5.686;2023-08-07T03:43:18;19.10;99.90
48535;DHT22;34323;52.022;5.686;2023-08-07T03:45:44;19.00;99.90
48535;DHT22;34323;52.022;5.686;2023-08-07T03:48:09;18.90;99.90
48535;DHT22;34323;52.022;5.686;2023-08-07T03:50:35;18.90;99.90
48535;DHT22;34323;52.022;5.686;2023-08-07T03:53:03;18.90;99.90
48535;DHT22;34323;52.022;5.686;2023-08-07T03:55:28;18.60;99.90
48535;DHT22;34323;52.022;5.686;2023-08-07T03:57:54;18.40;99.90
48535;DHT22;34323;52.022;5.686;2023-08-07T04:00:20;18.30;99.90
48535;DHT22;34323;52.022;5.686;2023-08-07T04:02:46;18.20;99.90
48535;DHT22;34323;52.022;5.686;2023-08-07T04:05:11;18.00;99.90
48535;DHT22;34323;52.022;5.686;2023-08-07T04:07:37;18.00;99.90
48535;DHT22;34323;52.022;5.686;2023-08-07T04:10:02;18.30;99.90
48535;DHT22;34323;52.022;5.686;2023-08-07T04:12:28;18.40;99.90
48535;DHT22;34323;52.022;5.686;2023-08-07T04:14:54;18.40;99.90
48535;DHT22;34323;52.022;5.686;2023-08-07T04:17:19;18.20;99.90
48535;DHT22;34323;52.022;5.686;2023-08-07T04:19:45;18.10;99.90
48535;DHT22;34323;52.022;5.686;2023-08-07T04:22:10;18.10;99.90
48535;DHT22;34323;52.022;5.686;2023-08-07T04:24:36;17.90;99.90
48535;DHT22;34323;52.022;5.686;2023-08-07T04:27:01;18.00;99.90
48535;DHT22;34323;52.022;5.686;2023-08-07T04:29:27;18.10;99.90
48535;DHT22;34323;52.022;5.686;2023-08-07T04:31:52;18.20;99.90
48535;DHT22;34323;52.022;5.686;2023-08-07T04:34:18;18.20;99.90
48535;DHT22;34323;52.022;5.686;2023-08-07T04:36:44;18.40;99.90
48535;DHT22;34323;52.022;5.686;2023-08-07T04:39:09;18.50;99.90
48535;DHT22;34323;52.022;5.686;2023-08-07T04:41:39;18.60;99.90
48535;DHT22;34323;52.022;5.686;2023-08-07T04:44:04;18.80;99.90
48535;DHT22;34323;52.022;5.686;2023-08-07T04:46:30;18.80;99.90
48535;DHT22;34323;52.022;5.686;2023-08-07T04:48:56;18.60;99.90
48535;DHT22;34323;52.022;5.686;2023-08-07T04:51:21;18.30;99.90
48535;DHT22;34323;52.022;5.686;2023-08-07T04:53:47;18.00;99.90
48535;DHT22;34323;52.022;5.686;2023-08-07T04:56:16;18.00;99.90
48535;DHT22;34323;52.022;5.686;2023-08-07T04:58:42;18.20;99.90
48535;DHT22;34323;52.022;5.686;2023-08-07T05:01:07;18.30;99.90
48535;DHT22;34323;52.022;5.686;2023-08-07T05:03:34;18.40;99.90
48535;DHT22;34323;52.022;5.686;2023-08-07T05:06:02;18.30;99.90
48535;DHT22;34323;52.022;5.686;2023-08-07T05:08:28;18.30;99.90
48535;DHT22;34323;52.022;5.686;2023-08-07T05:10:54;18.20;99.90
48535;DHT22;34323;52.022;5.686;2023-08-07T05:13:19;18.10;99.90
48535;DHT22;34323;52.022;5.686;2023-08-07T05:15:47;18.20;99.90
48535;DHT22;34323;52.022;5.686;2023-08-07T05:18:13;18.30;99.90
48535;DHT22;34323;52.022;5.686;2023-08-07T05:20:38;18.40;99.90
48535;DHT22;34323;52.022;5.686;2023-08-07T05:23:04;18.50;99.90
48535;DHT22;34323;52.022;5.686;2023-08-07T05:25:30;18.30;99.90
48535;DHT22;34323;52.022;5.686;2023-08-07T05:27:56;18.20;99.90
48535;DHT22;34323;52.022;5.686;2023-08-07T05:30:21;18.30;99.90
48535;DHT22;34323;52.022;5.686;2023-08-07T05:32:47;18.50;99.90
48535;DHT22;34323;52.022;5.686;2023-08-07T05:35:13;18.60;99.90
48535;DHT22;34323;52.022;5.686;2023-08-07T05:37:39;18.70;99.90
48535;DHT22;34323;52.022;5.686;2023-08-07T05:40:05;18.70;99.90
48535;DHT22;34323;52.022;5.686;2023-08-07T05:42:31;18.60;99.90
48535;DHT22;34323;52.022;5.686;2023-08-07T05:44:56;18.70;99.90
48535;DHT22;34323;52.022;5.686;2023-08-07T05:47:22;18.40;99.90
48535;DHT22;34323;52.022;5.686;2023-08-07T05:49:47;18.30;99.90
48535;DHT22;34323;52.022;5.686;2023-08-07T05:52:14;18.40;99.90
48535;DHT22;34323;52.022;5.686;2023-08-07T05:54:40;18.30;99.90
48535;DHT22;34323;52.022;5.686;2023-08-07T05:57:05;18.20;99.90
48535;DHT22;34323;52.022;5.686;2023-08-07T05:59:31;18.00;99.90
48535;DHT22;34323;52.022;5.686;2023-08-07T06:01:57;18.10;99.90
48535;DHT22;34323;52.022;5.686;2023-08-07T06:04:22;18.40;99.90
48535;DHT22;34323;52.022;5.686;2023-08-07T06:06:48;18.50;99.90
48535;DHT22;34323;52.022;5.686;2023-08-07T06:09:14;18.50;99.90
48535;DHT22;34323;52.022;5.686;2023-08-07T06:11:43;18.50;99.90
48535;DHT22;34323;52.022;5.686;2023-08-07T06:14:08;18.50;99.90
48535;DHT22;34323;52.022;5.686;2023-08-07T06:16:34;18.60;99.90
48535;DHT22;34323;52.022;5.686;2023-08-07T06:19:00;18.70;99.90
48535;DHT22;34323;52.022;5.686;2023-08-07T06:21:25;19.10;99.90
48535;DHT22;34323;52.022;5.686;2023-08-07T06:23:53;19.20;99.90
48535;DHT22;34323;52.022;5.686;2023-08-07T06:26:19;19.20;99.90
48535;DHT22;34323;52.022;5.686;2023-08-07T06:28:44;19.50;99.90
48535;DHT22;34323;52.022;5.686;2023-08-07T06:31:11;19.50;99.90
48535;DHT22;34323;52.022;5.686;2023-08-07T06:33:37;19.50;99.90
48535;DHT22;34323;52.022;5.686;2023-08-07T06:36:03;19.40;99.90
48535;DHT22;34323;52.022;5.686;2023-08-07T06:38:30;19.50;99.90
48535;DHT22;34323;52.022;5.686;2023-08-07T06:40:56;19.50;99.90
48535;DHT22;34323;52.022;5.686;2023-08-07T06:43:21;19.60;99.90
48535;DHT22;34323;52.022;5.686;2023-08-07T06:45:49;19.50;99.90
48535;DHT22;34323;52.022;5.686;2023-08-07T06:48:15;19.50;99.90
48535;DHT22;34323;52.022;5.686;2023-08-07T06:50:41;19.50;99.90
48535;DHT22;34323;52.022;5.686;2023-08-07T06:53:06;19.30;99.90
48535;DHT22;34323;52.022;5.686;2023-08-07T06:55:32;19.40;99.90
48535;DHT22;34323;52.022;5.686;2023-08-07T06:57:58;19.50;99.90
48535;DHT22;34323;52.022;5.686;2023-08-07T07:00:24;19.40;99.90
48535;DHT22;34323;52.022;5.686;2023-08-07T07:02:50;19.50;99.90
48535;DHT22;34323;52.022;5.686;2023-08-07T07:05:15;19.40;99.90
48535;DHT22;34323;52.022;5.686;2023-08-07T07:07:41;19.50;99.90
48535;DHT22;34323;52.022;5.686;2023-08-07T07:10:07;19.60;99.90
48535;DHT22;34323;52.022;5.686;2023-08-07T07:12:33;19.80;99.90
48535;DHT22;34323;52.022;5.686;2023-08-07T07:14:58;19.80;99.90
48535;DHT22;34323;52.022;5.686;2023-08-07T07:17:24;19.70;99.90
48535;DHT22;34323;52.022;5.686;2023-08-07T07:19:49;19.80;99.90
48535;DHT22;34323;52.022;5.686;2023-08-07T07:22:15;19.90;99.90
48535;DHT22;34323;52.022;5.686;2023-08-07T07:24:41;19.80;99.90
48535;DHT22;34323;52.022;5.686;2023-08-07T07:27:06;20.00;99.90
48535;DHT22;34323;52.022;5.686;2023-08-07T07:29:32;20.00;99.90
48535;DHT22;34323;52.022;5.686;2023-08-07T07:31:57;19.90;99.90
48535;DHT22;34323;52.022;5.686;2023-08-07T07:34:23;19.90;99.90
48535;DHT22;34323;52.022;5.686;2023-08-07T07:36:49;19.60;99.90
48535;DHT22;34323;52.022;5.686;2023-08-07T07:39:14;19.50;99.90
48535;DHT22;34323;52.022;5.686;2023-08-07T07:41:40;19.90;99.90
48535;DHT22;34323;52.022;5.686;2023-08-07T07:44:05;20.00;99.90
48535;DHT22;34323;52.022;5.686;2023-08-07T07:46:31;19.80;99.90
48535;DHT22;34323;52.022;5.686;2023-08-07T07:48:58;19.50;99.90
48535;DHT22;34323;52.022;5.686;2023-08-07T07:51:24;19.60;99.90
48535;DHT22;34323;52.022;5.686;2023-08-07T07:53:50;19.50;99.90
48535;DHT22;34323;52.022;5.686;2023-08-07T07:56:15;19.80;99.90
48535;DHT22;34323;52.022;5.686;2023-08-07T07:58:41;19.80;99.90
48535;DHT22;34323;52.022;5.686;2023-08-07T08:01:07;19.80;99.90
48535;DHT22;34323;52.022;5.686;2023-08-07T08:03:33;20.00;99.90
48535;DHT22;34323;52.022;5.686;2023-08-07T08:05:59;20.00;99.90
48535;DHT22;34323;52.022;5.686;2023-08-07T08:08:24;20.10;99.90
48535;DHT22;34323;52.022;5.686;2023-08-07T08:10:50;20.40;99.90
48535;DHT22;34323;52.022;5.686;2023-08-07T08:13:17;20.50;99.90
48535;DHT22;34323;52.022;5.686;2023-08-07T08:15:43;20.80;99.90
48535;DHT22;34323;52.022;5.686;2023-08-07T08:18:09;20.90;99.90
48535;DHT22;34323;52.022;5.686;2023-08-07T08:20:35;20.80;99.90
48535;DHT22;34323;52.022;5.686;2023-08-07T08:23:00;21.00;99.90
48535;DHT22;34323;52.022;5.686;2023-08-07T08:25:26;20.90;99.90
48535;DHT22;34323;52.022;5.686;2023-08-07T08:27:52;20.90;99.90
48535;DHT22;34323;52.022;5.686;2023-08-07T08:30:17;20.20;99.90
48535;DHT22;34323;52.022;5.686;2023-08-07T08:32:43;19.80;99.90
48535;DHT22;34323;52.022;5.686;2023-08-07T08:35:09;19.70;99.90
48535;DHT22;34323;52.022;5.686;2023-08-07T08:37:35;19.80;99.90
48535;DHT22;34323;52.022;5.686;2023-08-07T08:40:00;19.90;99.90
48535;DHT22;34323;52.022;5.686;2023-08-07T08:42:26;19.60;99.90
48535;DHT22;34323;52.022;5.686;2023-08-07T08:44:54;19.80;99.90
48535;DHT22;34323;52.022;5.686;2023-08-07T08:47:27;19.70;99.90
48535;DHT22;34323;52.022;5.686;2023-08-07T08:50:07;19.80;99.90
48535;DHT22;34323;52.022;5.686;2023-08-07T08:52:33;19.90;99.90
48535;DHT22;34323;52.022;5.686;2023-08-07T08:55:01;19.80;99.90
48535;DHT22;34323;52.022;5.686;2023-08-07T08:57:28;19.90;99.90
48535;DHT22;34323;52.022;5.686;2023-08-07T08:59:56;20.10;99.90
48535;DHT22;34323;52.022;5.686;2023-08-07T09:02:22;20.20;99.90
48535;DHT22;34323;52.022;5.686;2023-08-07T09:04:48;20.10;99.90
48535;DHT22;34323;52.022;5.686;2023-08-07T09:07:15;20.40;99.90
48535;DHT22;34323;52.022;5.686;2023-08-07T09:09:42;20.60;99.90
48535;DHT22;34323;52.022;5.686;2023-08-07T09:12:16;20.70;99.90
48535;DHT22;34323;52.022;5.686;2023-08-07T09:14:43;21.10;99.90
48535;DHT22;34323;52.022;5.686;2023-08-07T09:17:10;21.50;99.90
48535;DHT22;34323;52.022;5.686;2023-08-07T09:19:37;21.30;99.90
48535;DHT22;34323;52.022;5.686;2023-08-07T09:22:03;21.30;99.90
48535;DHT22;34323;52.022;5.686;2023-08-07T09:24:29;20.90;99.90
48535;DHT22;34323;52.022;5.686;2023-08-07T09:26:55;20.90;99.90
48535;DHT22;34323;52.022;5.686;2023-08-07T09:29:22;20.40;99.90
48535;DHT22;34323;52.022;5.686;2023-08-07T09:31:47;20.30;99.90
48535;DHT22;34323;52.022;5.686;2023-08-07T09:34:13;20.30;99.90
48535;DHT22;34323;52.022;5.686;2023-08-07T09:36:42;20.50;99.90
48535;DHT22;34323;52.022;5.686;2023-08-07T09:39:07;20.70;99.90
48535;DHT22;34323;52.022;5.686;2023-08-07T09:41:33;20.80;99.90
48535;DHT22;34323;52.022;5.686;2023-08-07T09:44:06;20.80;99.90
48535;DHT22;34323;52.022;5.686;2023-08-07T09:46:32;20.70;99.90
48535;DHT22;34323;52.022;5.686;2023-08-07T09:49:02;20.90;99.90
48535;DHT22;34323;52.022;5.686;2023-08-07T09:51:41;21.00;99.90
48535;DHT22;34323;52.022;5.686;2023-08-07T09:54:07;21.10;99.90
48535;DHT22;34323;52.022;5.686;2023-08-07T09:56:32;21.40;99.90
48535;DHT22;34323;52.022;5.686;2023-08-07T09:59:00;21.50;99.90
48535;DHT22;34323;52.022;5.686;2023-08-07T10:01:25;21.70;99.90
48535;DHT22;34323;52.022;5.686;2023-08-07T10:03:52;21.90;99.90
48535;DHT22;34323;52.022;5.686;2023-08-07T10:06:18;21.80;99.90
48535;DHT22;34323;52.022;5.686;2023-08-07T10:08:45;22.00;99.90
48535;DHT22;34323;52.022;5.686;2023-08-07T10:11:11;22.30;99.90
48535;DHT22;34323;52.022;5.686;2023-08-07T10:13:37;22.40;99.90
48535;DHT22;34323;52.022;5.686;2023-08-07T10:16:04;22.50;99.90
48535;DHT22;34323;52.022;5.686;2023-08-07T10:18:29;22.30;99.90
48535;DHT22;34323;52.022;5.686;2023-08-07T10:20:56;22.20;99.90
48535;DHT22;34323;52.022;5.686;2023-08-07T10:23:22;22.10;99.90
48535;DHT22;34323;52.022;5.686;2023-08-07T10:25:49;22.10;99.90
48535;DHT22;34323;52.022;5.686;2023-08-07T10:28:17;21.80;99.90
48535;DHT22;34323;52.022;5.686;2023-08-07T10:30:44;21.90;99.90
48535;DHT22;34323;52.022;5.686;2023-08-07T10:33:11;21.60;99.90
48535;DHT22;34323;52.022;5.686;2023-08-07T10:35:44;21.20;99.90
48535;DHT22;34323;52.022;5.686;2023-08-07T10:38:11;21.10;99.90
48535;DHT22;34323;52.022;5.686;2023-08-07T10:40:59;20.90;99.90
48535;DHT22;34323;52.022;5.686;2023-08-07T10:43:26;21.10;99.90
48535;DHT22;34323;52.022;5.686;2023-08-07T10:45:53;21.30;99.90
48535;DHT22;34323;52.022;5.686;2023-08-07T10:48:19;21.50;99.90
48535;DHT22;34323;52.022;5.686;2023-08-07T10:50:50;21.10;99.90
48535;DHT22;34323;52.022;5.686;2023-08-07T10:53:27;21.20;99.90
48535;DHT22;34323;52.022;5.686;2023-08-07T10:55:53;21.60;99.90
48535;DHT22;34323;52.022;5.686;2023-08-07T10:58:29;21.60;99.90
48535;DHT22;34323;52.022;5.686;2023-08-07T11:01:17;21.60;99.90
48535;DHT22;34323;52.022;5.686;2023-08-07T11:03:57;21.90;99.90
48535;DHT22;34323;52.022;5.686;2023-08-07T11:06:33;22.30;99.90
48535;DHT22;34323;52.022;5.686;2023-08-07T11:09:00;22.60;99.90
48535;DHT22;34323;52.022;5.686;2023-08-07T11:11:40;22.90;99.90
48535;DHT22;34323;52.022;5.686;2023-08-07T11:14:10;23.00;99.90
48535;DHT22;34323;52.022;5.686;2023-08-07T11:16:36;22.50;99.90
48535;DHT22;34323;52.022;5.686;2023-08-07T11:19:03;22.40;99.90
48535;DHT22;34323;52.022;5.686;2023-08-07T11:21:30;22.40;99.90
48535;DHT22;34323;52.022;5.686;2023-08-07T11:23:56;22.30;99.90
48535;DHT22;34323;52.022;5.686;2023-08-07T11:26:21;22.20;99.90
48535;DHT22;34323;52.022;5.686;2023-08-07T11:28:48;22.40;99.90
48535;DHT22;34323;52.022;5.686;2023-08-07T11:31:14;22.60;99.90
48535;DHT22;34323;52.022;5.686;2023-08-07T11:33:40;22.90;99.90
48535;DHT22;34323;52.022;5.686;2023-08-07T11:36:13;22.90;99.90
48535;DHT22;34323;52.022;5.686;2023-08-07T11:38:41;22.80;99.90
48535;DHT22;34323;52.022;5.686;2023-08-07T11:41:14;22.50;99.90
48535;DHT22;34323;52.022;5.686;2023-08-07T11:43:41;22.10;99.90
48535;DHT22;34323;52.022;5.686;2023-08-07T11:46:08;22.00;99.90
48535;DHT22;34323;52.022;5.686;2023-08-07T11:48:35;21.70;99.90
48535;DHT22;34323;52.022;5.686;2023-08-07T11:51:02;21.70;99.90
48535;DHT22;34323;52.022;5.686;2023-08-07T11:53:29;21.80;99.90
48535;DHT22;34323;52.022;5.686;2023-08-07T11:55:57;21.90;99.90
48535;DHT22;34323;52.022;5.686;2023-08-07T11:58:40;22.00;99.90
48535;DHT22;34323;52.022;5.686;2023-08-07T12:01:10;21.80;99.90
48535;DHT22;34323;52.022;5.686;2023-08-07T12:03:37;21.70;99.90
48535;DHT22;34323;52.022;5.686;2023-08-07T12:06:04;22.10;99.90
48535;DHT22;34323;52.022;5.686;2023-08-07T12:08:38;22.30;99.90
48535;DHT22;34323;52.022;5.686;2023-08-07T12:11:09;22.80;99.90
48535;DHT22;34323;52.022;5.686;2023-08-07T12:13:40;22.90;99.90
48535;DHT22;34323;52.022;5.686;2023-08-07T12:16:07;23.20;99.90
48535;DHT22;34323;52.022;5.686;2023-08-07T12:18:35;23.40;99.90
48535;DHT22;34323;52.022;5.686;2023-08-07T12:21:04;23.70;99.90
48535;DHT22;34323;52.022;5.686;2023-08-07T12:23:33;24.00;99.90
48535;DHT22;34323;52.022;5.686;2023-08-07T12:26:00;24.00;99.90
48535;DHT22;34323;52.022;5.686;2023-08-07T12:28:25;24.30;99.90
48535;DHT22;34323;52.022;5.686;2023-08-07T12:30:51;23.60;99.90
48535;DHT22;34323;52.022;5.686;2023-08-07T12:33:18;23.40;99.90
48535;DHT22;34323;52.022;5.686;2023-08-07T12:35:44;23.30;99.90
48535;DHT22;34323;52.022;5.686;2023-08-07T12:38:10;23.40;99.90
48535;DHT22;34323;52.022;5.686;2023-08-07T12:40:36;23.70;99.90
48535;DHT22;34323;52.022;5.686;2023-08-07T12:43:03;23.70;99.90
48535;DHT22;34323;52.022;5.686;2023-08-07T12:45:29;24.00;99.90
48535;DHT22;34323;52.022;5.686;2023-08-07T12:47:54;24.30;99.90
48535;DHT22;34323;52.022;5.686;2023-08-07T12:50:20;24.40;99.90
48535;DHT22;34323;52.022;5.686;2023-08-07T12:52:45;24.40;99.90
48535;DHT22;34323;52.022;5.686;2023-08-07T12:55:11;24.50;99.90
48535;DHT22;34323;52.022;5.686;2023-08-07T12:57:43;24.60;99.90
48535;DHT22;34323;52.022;5.686;2023-08-07T13:00:12;24.50;99.90
48535;DHT22;34323;52.022;5.686;2023-08-07T13:02:48;24.20;99.90
48535;DHT22;34323;52.022;5.686;2023-08-07T13:05:14;24.40;99.90
48535;DHT22;34323;52.022;5.686;2023-08-07T13:07:40;24.50;99.90
48535;DHT22;34323;52.022;5.686;2023-08-07T13:10:08;24.80;99.90
48535;DHT22;34323;52.022;5.686;2023-08-07T13:12:39;24.90;99.90
48535;DHT22;34323;52.022;5.686;2023-08-07T13:15:06;25.30;99.90
48535;DHT22;34323;52.022;5.686;2023-08-07T13:17:34;25.40;99.90
48535;DHT22;34323;52.022;5.686;2023-08-07T13:20:00;25.40;99.90
48535;DHT22;34323;52.022;5.686;2023-08-07T13:22:26;25.20;99.90
48535;DHT22;34323;52.022;5.686;2023-08-07T13:24:53;25.10;99.90
48535;DHT22;34323;52.022;5.686;2023-08-07T13:27:19;24.70;99.90
48535;DHT22;34323;52.022;5.686;2023-08-07T13:29:44;24.30;99.90
48535;DHT22;34323;52.022;5.686;2023-08-07T13:32:10;24.10;99.90
48535;DHT22;34323;52.022;5.686;2023-08-07T13:34:36;24.10;99.90
48535;DHT22;34323;52.022;5.686;2023-08-07T13:37:02;24.30;99.90
48535;DHT22;34323;52.022;5.686;2023-08-07T13:39:28;24.00;99.90
48535;DHT22;34323;52.022;5.686;2023-08-07T13:41:54;23.80;99.90
48535;DHT22;34323;52.022;5.686;2023-08-07T13:44:19;23.90;99.90
48535;DHT22;34323;52.022;5.686;2023-08-07T13:46:45;24.10;99.90
48535;DHT22;34323;52.022;5.686;2023-08-07T13:49:13;24.90;99.90
48535;DHT22;34323;52.022;5.686;2023-08-07T13:51:38;26.30;99.90
48535;DHT22;34323;52.022;5.686;2023-08-07T13:54:04;27.50;99.90
48535;DHT22;34323;52.022;5.686;2023-08-07T13:56:29;28.20;99.90
48535;DHT22;34323;52.022;5.686;2023-08-07T13:58:55;28.60;99.90
48535;DHT22;34323;52.022;5.686;2023-08-07T14:01:21;28.50;99.90
48535;DHT22;34323;52.022;5.686;2023-08-07T14:03:46;28.90;99.90
48535;DHT22;34323;52.022;5.686;2023-08-07T14:06:12;29.90;99.90
48535;DHT22;34323;52.022;5.686;2023-08-07T14:08:37;30.70;99.90
48535;DHT22;34323;52.022;5.686;2023-08-07T14:11:03;31.60;99.90
48535;DHT22;34323;52.022;5.686;2023-08-07T14:13:30;31.90;99.90
48535;DHT22;34323;52.022;5.686;2023-08-07T14:15:55;31.90;99.90
48535;DHT22;34323;52.022;5.686;2023-08-07T14:18:21;32.00;99.90
48535;DHT22;34323;52.022;5.686;2023-08-07T14:20:46;31.20;99.90
48535;DHT22;34323;52.022;5.686;2023-08-07T14:23:12;31.10;99.90
48535;DHT22;34323;52.022;5.686;2023-08-07T14:25:38;30.60;99.90
48535;DHT22;34323;52.022;5.686;2023-08-07T14:28:04;31.00;99.90
48535;DHT22;34323;52.022;5.686;2023-08-07T14:30:29;30.70;99.90
48535;DHT22;34323;52.022;5.686;2023-08-07T14:32:55;30.70;99.90
48535;DHT22;34323;52.022;5.686;2023-08-07T14:35:20;31.20;99.90
48535;DHT22;34323;52.022;5.686;2023-08-07T14:37:46;31.10;99.90
48535;DHT22;34323;52.022;5.686;2023-08-07T14:40:13;31.20;99.90
48535;DHT22;34323;52.022;5.686;2023-08-07T14:42:39;31.60;99.90
48535;DHT22;34323;52.022;5.686;2023-08-07T14:45:05;32.10;99.90
48535;DHT22;34323;52.022;5.686;2023-08-07T14:47:31;32.20;99.90
48535;DHT22;34323;52.022;5.686;2023-08-07T14:49:56;31.80;99.90
48535;DHT22;34323;52.022;5.686;2023-08-07T14:52:22;31.20;99.90
48535;DHT22;34323;52.022;5.686;2023-08-07T14:54:47;30.10;99.90
48535;DHT22;34323;52.022;5.686;2023-08-07T14:57:13;29.00;99.90
48535;DHT22;34323;52.022;5.686;2023-08-07T14:59:39;27.80;99.90
48535;DHT22;34323;52.022;5.686;2023-08-07T15:02:05;27.40;99.90
48535;DHT22;34323;52.022;5.686;2023-08-07T15:04:31;27.80;99.90
48535;DHT22;34323;52.022;5.686;2023-08-07T15:06:57;29.20;99.90
48535;DHT22;34323;52.022;5.686;2023-08-07T15:09:22;29.50;99.90
48535;DHT22;34323;52.022;5.686;2023-08-07T15:11:48;30.00;99.90
48535;DHT22;34323;52.022;5.686;2023-08-07T15:14:14;31.30;99.90
48535;DHT22;34323;52.022;5.686;2023-08-07T15:16:40;32.50;99.90
48535;DHT22;34323;52.022;5.686;2023-08-07T15:19:06;33.30;99.90
48535;DHT22;34323;52.022;5.686;2023-08-07T15:21:32;33.10;99.90
48535;DHT22;34323;52.022;5.686;2023-08-07T15:23:57;32.90;99.90
48535;DHT22;34323;52.022;5.686;2023-08-07T15:26:23;32.70;99.90
48535;DHT22;34323;52.022;5.686;2023-08-07T15:28:48;32.70;99.90